createdAt,value
2022-12-03T00:01:25.083Z,69.25
2022-12-03T00:03:52.649Z,67.32
2022-12-03T00:06:20.329Z,65.97
2022-12-03T00:08:47.926Z,58.13
2022-12-03T00:11:15.450Z,61.55
2022-12-03T00:13:42.942Z,59.05
2022-12-03T00:16:10.507Z,68.18
2022-12-03T00:18:38.122Z,58.00
2022-12-03T00:21:05.707Z,61.13
2022-12-03T00:23:35.962Z,63.33
2022-12-03T00:26:07.781Z,59.78
2022-12-03T00:28:35.288Z,58.35
2022-12-03T00:31:02.873Z,60.05
2022-12-03T00:33:30.320Z,59.00
2022-12-03T00:35:57.712Z,61.47
2022-12-03T00:38:25.133Z,66.07
2022-12-03T00:40:52.499Z,63.03
2022-12-03T00:43:19.883Z,60.17
2022-12-03T00:45:47.305Z,62.30
2022-12-03T00:48:14.681Z,60.10
2022-12-03T00:50:42.315Z,64.22
2022-12-03T00:53:09.681Z,59.35
2022-12-03T00:55:41.739Z,58.40
2022-12-03T00:58:09.899Z,56.92
2022-12-03T01:00:37.747Z,62.80
2022-12-03T01:03:05.896Z,56.95
2022-12-03T01:05:33.303Z,60.47
2022-12-03T01:08:00.943Z,65.97
2022-12-03T01:10:28.499Z,58.75
2022-12-03T01:12:56.089Z,62.17
2022-12-03T01:15:23.574Z,61.08
2022-12-03T01:17:50.893Z,64.07
2022-12-03T01:20:18.389Z,66.75
2022-12-03T01:22:45.701Z,63.08
2022-12-03T01:25:13.045Z,61.13
2022-12-03T01:27:40.368Z,68.80
2022-12-03T01:30:08.938Z,60.00
2022-12-03T01:32:36.324Z,62.55
2022-12-03T01:35:03.764Z,70.03
2022-12-03T01:37:31.354Z,62.25
2022-12-03T01:39:58.626Z,70.22
2022-12-03T01:42:29.210Z,63.55
2022-12-03T01:44:58.048Z,60.08
2022-12-03T01:47:31.569Z,61.80
2022-12-03T01:50:13.993Z,64.15
2022-12-03T01:52:41.846Z,62.70
2022-12-03T01:55:17.886Z,67.25
2022-12-03T01:57:48.812Z,61.03
2022-12-03T02:00:21.643Z,63.50
2022-12-03T02:02:54.999Z,63.45
2022-12-03T02:05:27.429Z,66.22
2022-12-03T02:07:55.402Z,60.47
2022-12-03T02:10:31.454Z,62.83
2022-12-03T02:13:02.052Z,72.50
2022-12-03T02:15:29.549Z,65.85
2022-12-03T02:17:57.675Z,69.43
2022-12-03T02:20:24.932Z,67.55
2022-12-03T02:23:08.862Z,61.63
2022-12-03T02:25:36.966Z,61.15
2022-12-03T02:28:04.975Z,61.60
2022-12-03T02:30:32.716Z,70.32
2022-12-03T02:33:00.150Z,61.95
2022-12-03T02:35:31.505Z,59.00
2022-12-03T02:38:19.062Z,57.28
2022-12-03T02:40:48.028Z,61.38
2022-12-03T02:43:16.555Z,59.75
2022-12-03T02:45:46.943Z,56.35
2022-12-03T02:48:23.998Z,59.95
2022-12-03T02:50:56.263Z,64.07
2022-12-03T02:53:27.400Z,65.25
2022-12-03T02:55:56.375Z,56.95
2022-12-03T02:58:25.160Z,60.60
2022-12-03T03:00:53.318Z,60.40
2022-12-03T03:03:21.374Z,59.00
2022-12-03T03:05:49.003Z,62.17
2022-12-03T03:08:17.016Z,62.53
2022-12-03T03:10:44.723Z,62.10
2022-12-03T03:13:13.605Z,65.82
2022-12-03T03:15:42.052Z,64.35
2022-12-03T03:18:10.166Z,58.00
2022-12-03T03:20:38.158Z,66.45
2022-12-03T03:23:12.232Z,57.50
2022-12-03T03:25:41.844Z,67.68
2022-12-03T03:28:09.581Z,63.90
2022-12-03T03:30:38.947Z,59.22
2022-12-03T03:33:06.425Z,60.70
2022-12-03T03:35:33.693Z,64.95
2022-12-03T03:38:01.012Z,61.22
2022-12-03T03:40:28.682Z,70.05
2022-12-03T03:42:56.296Z,60.45
2022-12-03T03:45:28.762Z,66.03
2022-12-03T03:47:59.164Z,63.30
2022-12-03T03:50:28.535Z,67.43
2022-12-03T03:52:56.991Z,69.10
2022-12-03T03:55:24.587Z,68.78
2022-12-03T03:57:51.911Z,60.50
2022-12-03T04:00:19.507Z,62.45
2022-12-03T04:02:46.982Z,61.80
2022-12-03T04:05:20.635Z,57.55
2022-12-03T04:07:48.069Z,57.60
2022-12-03T04:10:36.103Z,63.38
2022-12-03T04:13:04.074Z,61.47
2022-12-03T04:15:31.491Z,66.97
2022-12-03T04:18:17.621Z,65.85
2022-12-03T04:20:44.922Z,63.33
2022-12-03T04:23:12.222Z,69.20
2022-12-03T04:25:57.840Z,61.78
2022-12-03T04:28:43.977Z,62.55
2022-12-03T04:31:29.598Z,76.70
2022-12-03T04:34:15.756Z,69.97
2022-12-03T04:36:43.005Z,61.65
2022-12-03T04:39:10.310Z,58.85
2022-12-03T04:41:37.604Z,61.00
2022-12-03T04:44:23.714Z,62.17
2022-12-03T04:46:51.009Z,60.63
2022-12-03T04:49:18.282Z,63.38
2022-12-03T04:51:45.583Z,63.33
2022-12-03T04:54:12.853Z,63.13
2022-12-03T04:56:40.229Z,57.67
2022-12-03T04:59:11.383Z,56.13
2022-12-03T05:01:43.183Z,62.90
2022-12-03T05:04:11.273Z,61.70
2022-12-03T05:06:38.599Z,62.53
2022-12-03T05:09:05.911Z,58.63
2022-12-03T05:11:33.214Z,64.90
2022-12-03T05:14:00.616Z,63.95
2022-12-03T05:16:28.119Z,61.67
2022-12-03T05:18:55.379Z,63.35
2022-12-03T05:21:22.982Z,63.33
2022-12-03T05:23:50.806Z,68.95
2022-12-03T05:26:18.257Z,64.70
2022-12-03T05:28:45.598Z,68.30
2022-12-03T05:31:13.025Z,57.72
2022-12-03T05:33:44.247Z,68.95
2022-12-03T05:36:12.102Z,71.20
2022-12-03T05:38:39.367Z,62.70
2022-12-03T05:41:25.435Z,64.43
2022-12-03T05:43:52.694Z,67.25
2022-12-03T05:46:20.131Z,64.72
2022-12-03T05:48:47.530Z,68.60
2022-12-03T05:51:14.936Z,66.47
2022-12-03T05:53:42.264Z,63.15
2022-12-03T05:56:09.621Z,65.05
2022-12-03T05:58:36.869Z,69.25
2022-12-03T06:01:04.233Z,64.70
2022-12-03T06:03:31.699Z,60.88
2022-12-03T06:05:59.443Z,63.63
2022-12-03T06:08:26.698Z,65.43
2022-12-03T06:10:54.085Z,68.82
2022-12-03T06:13:21.383Z,65.07
2022-12-03T06:15:48.770Z,61.92
2022-12-03T06:18:16.108Z,68.97
2022-12-03T06:20:43.461Z,63.33
2022-12-03T06:23:10.835Z,65.65
2022-12-03T06:25:38.102Z,70.93
2022-12-03T06:28:06.074Z,66.07
2022-12-03T06:30:35.176Z,69.18
2022-12-03T06:33:02.557Z,63.58
2022-12-03T06:35:30.076Z,69.47
2022-12-03T06:37:57.532Z,66.70
2022-12-03T06:40:25.066Z,66.57
2022-12-03T06:42:52.566Z,71.70
2022-12-03T06:45:19.864Z,67.03
2022-12-03T06:47:47.145Z,69.20
2022-12-03T06:50:14.445Z,66.93
2022-12-03T06:52:41.780Z,63.25
2022-12-03T06:55:09.623Z,69.38
2022-12-03T06:57:36.991Z,66.75
2022-12-03T07:00:06.078Z,79.53
2022-12-03T07:02:33.527Z,69.20
2022-12-03T07:05:00.905Z,70.78
2022-12-03T07:07:28.254Z,70.68
2022-12-03T07:09:55.827Z,63.78
2022-12-03T07:12:23.104Z,70.10
2022-12-03T07:14:50.436Z,71.18
2022-12-03T07:17:17.788Z,69.90
2022-12-03T07:19:45.086Z,71.68
2022-12-03T07:22:12.329Z,68.35
2022-12-03T07:24:39.671Z,70.25
2022-12-03T07:27:06.961Z,70.35
2022-12-03T07:29:34.294Z,70.30
2022-12-03T07:32:01.562Z,67.80
2022-12-03T07:34:28.847Z,66.22
2022-12-03T07:36:56.158Z,71.32
2022-12-03T07:39:23.450Z,73.22
2022-12-03T07:41:50.754Z,66.47
2022-12-03T07:44:18.039Z,67.95
2022-12-03T07:46:45.358Z,64.53
2022-12-03T07:49:12.726Z,75.13
2022-12-03T07:51:40.160Z,75.65
2022-12-03T07:54:07.609Z,70.80
2022-12-03T07:56:34.933Z,72.18
2022-12-03T07:59:02.283Z,69.65
2022-12-03T08:01:29.632Z,69.45
2022-12-03T08:03:57.009Z,73.40
2022-12-03T08:06:24.347Z,68.65
2022-12-03T08:08:51.613Z,73.55
2022-12-03T08:11:18.973Z,71.05
2022-12-03T08:13:46.292Z,69.07
2022-12-03T08:16:20.822Z,74.50
2022-12-03T08:18:49.642Z,69.32
2022-12-03T08:21:19.390Z,65.57
2022-12-03T08:23:46.965Z,76.25
2022-12-03T08:26:29.692Z,73.13
2022-12-03T08:28:57.382Z,74.15
2022-12-03T08:31:32.803Z,71.82
2022-12-03T08:34:21.785Z,76.47
2022-12-03T08:36:56.780Z,69.25
2022-12-03T08:39:34.104Z,66.93
2022-12-03T08:42:31.938Z,72.63
2022-12-03T08:45:20.593Z,67.47
2022-12-03T08:47:47.898Z,68.65
2022-12-03T08:50:29.858Z,75.43
2022-12-03T08:53:15.606Z,77.25
2022-12-03T08:55:47.811Z,76.18
2022-12-03T08:58:15.010Z,68.57
2022-12-03T09:00:42.790Z,77.25
2022-12-03T09:03:14.933Z,78.20
2022-12-03T09:05:42.199Z,71.57
2022-12-03T09:08:09.553Z,74.57
2022-12-03T09:10:36.934Z,74.63
2022-12-03T09:13:04.218Z,72.88
2022-12-03T09:15:31.531Z,72.97
2022-12-03T09:17:58.878Z,71.53
2022-12-03T09:20:26.126Z,69.03
2022-12-03T09:22:53.411Z,66.53
2022-12-03T09:25:20.699Z,71.97
2022-12-03T09:27:48.179Z,73.85
2022-12-03T09:30:15.697Z,78.22
2022-12-03T09:32:43.212Z,76.18
2022-12-03T09:35:10.515Z,76.55
2022-12-03T09:37:37.835Z,76.50
2022-12-03T09:40:06.012Z,74.90
2022-12-03T09:42:33.667Z,75.90
2022-12-03T09:45:03.380Z,73.75
2022-12-03T09:47:31.270Z,76.95
2022-12-03T09:49:58.823Z,73.93
2022-12-03T09:52:27.737Z,78.22
2022-12-03T09:54:55.563Z,70.90
2022-12-03T09:57:23.180Z,73.03
2022-12-03T09:59:50.598Z,77.95
2022-12-03T10:02:24.248Z,72.07
2022-12-03T10:04:53.284Z,77.75
2022-12-03T10:07:21.007Z,73.28
2022-12-03T10:09:48.354Z,68.07
2022-12-03T10:12:22.636Z,72.38
2022-12-03T10:14:50.019Z,80.70
2022-12-03T10:17:17.502Z,81.07
2022-12-03T10:19:44.973Z,71.78
2022-12-03T10:22:12.454Z,74.70
2022-12-03T10:24:39.912Z,77.28
2022-12-03T10:27:24.890Z,74.75
2022-12-03T10:29:56.910Z,73.15
2022-12-03T10:32:40.435Z,74.32
2022-12-03T10:35:11.424Z,73.70
2022-12-03T10:37:55.595Z,76.38
2022-12-03T10:40:28.420Z,77.47
2022-12-03T10:43:14.088Z,82.07
2022-12-03T10:45:42.643Z,75.60
2022-12-03T10:48:20.385Z,76.10
2022-12-03T10:51:00.512Z,78.65
2022-12-03T10:53:30.354Z,80.68
2022-12-03T10:56:00.133Z,72.10
2022-12-03T10:58:34.452Z,75.03
2022-12-03T11:01:03.494Z,80.82
2022-12-03T11:03:34.885Z,74.38
2022-12-03T11:06:03.374Z,74.22
2022-12-03T11:08:33.822Z,76.40
2022-12-03T11:11:23.047Z,73.38
2022-12-03T11:13:55.185Z,68.55
2022-12-03T11:16:40.555Z,73.82
2022-12-03T11:19:13.516Z,70.90
2022-12-03T11:22:05.357Z,74.30
2022-12-03T11:24:34.759Z,79.03
2022-12-03T11:27:01.981Z,78.82
2022-12-03T11:30:01.818Z,79.55
2022-12-03T11:32:38.017Z,76.65
2022-12-03T11:35:15.030Z,72.50
2022-12-03T11:37:42.608Z,72.07
2022-12-03T11:40:18.586Z,67.95
2022-12-03T11:42:47.387Z,68.97
2022-12-03T11:45:30.754Z,79.70
2022-12-03T11:47:58.043Z,79.70
2022-12-03T11:50:57.469Z,78.47
2022-12-03T11:53:31.065Z,85.85
2022-12-03T11:56:08.892Z,73.00
2022-12-03T11:58:39.018Z,78.35
2022-12-03T12:01:07.942Z,76.03
2022-12-03T12:03:55.614Z,72.38
2022-12-03T12:06:23.044Z,76.25
2022-12-03T12:08:59.819Z,70.38
2022-12-03T12:11:35.151Z,72.70
2022-12-03T12:14:04.663Z,78.10
2022-12-03T12:16:50.778Z,75.88
2022-12-03T12:19:43.113Z,78.13
2022-12-03T12:22:23.045Z,76.50
2022-12-03T12:25:25.183Z,74.85
2022-12-03T12:27:53.827Z,78.45
2022-12-03T12:30:22.492Z,74.75
2022-12-03T12:33:12.240Z,70.13
2022-12-03T12:35:40.783Z,78.85
2022-12-03T12:38:08.655Z,81.38
2022-12-03T12:40:37.535Z,69.38
2022-12-03T12:43:15.265Z,72.38
2022-12-03T12:45:45.334Z,82.90
2022-12-03T12:48:26.141Z,67.40
2022-12-03T12:51:02.837Z,80.00
2022-12-03T12:53:37.481Z,71.50
2022-12-03T12:56:13.365Z,74.05
2022-12-03T12:58:40.735Z,67.68
2022-12-03T13:01:16.063Z,69.68
2022-12-03T13:03:43.400Z,73.93
2022-12-03T13:06:11.501Z,73.05
2022-12-03T13:08:40.894Z,72.03
2022-12-03T13:11:41.254Z,71.75
2022-12-03T13:14:25.563Z,80.75
2022-12-03T13:16:55.129Z,69.80
2022-12-03T13:19:25.130Z,66.30
2022-12-03T13:21:54.569Z,77.10
2022-12-03T13:24:37.587Z,74.70
2022-12-03T13:27:16.993Z,73.10
2022-12-03T13:29:47.995Z,76.95
2022-12-03T13:32:30.732Z,77.22
2022-12-03T13:35:24.028Z,70.47
2022-12-03T13:37:51.388Z,66.07
2022-12-03T13:40:27.701Z,75.20
2022-12-03T13:42:55.094Z,68.88
2022-12-03T13:45:24.675Z,71.25
2022-12-03T13:48:00.677Z,76.85
2022-12-03T13:50:44.424Z,69.80
2022-12-03T13:53:11.746Z,75.35
2022-12-03T13:55:45.643Z,75.15
2022-12-03T13:58:12.969Z,68.97
2022-12-03T14:00:40.325Z,71.32
2022-12-03T14:03:07.788Z,75.15
2022-12-03T14:05:35.060Z,76.78
2022-12-03T14:08:02.517Z,76.43
2022-12-03T14:10:29.928Z,72.05
2022-12-03T14:12:57.515Z,67.30
2022-12-03T14:15:27.799Z,75.25
2022-12-03T14:17:55.255Z,64.28
2022-12-03T14:20:22.550Z,67.55
2022-12-03T14:22:49.822Z,62.83
2022-12-03T14:25:17.596Z,65.80
2022-12-03T14:27:44.870Z,68.70
2022-12-03T14:30:12.558Z,68.13
2022-12-03T14:32:39.847Z,67.03
2022-12-03T14:35:10.132Z,62.15
2022-12-03T14:37:37.675Z,66.20
2022-12-03T14:40:06.996Z,62.08
2022-12-03T14:42:34.623Z,63.75
2022-12-03T14:45:02.023Z,69.85
2022-12-03T14:47:29.257Z,69.20
2022-12-03T14:49:57.117Z,60.53
2022-12-03T14:52:24.515Z,59.95
2022-12-03T14:54:51.803Z,59.58
2022-12-03T14:57:19.154Z,60.22
2022-12-03T14:59:47.082Z,61.00
2022-12-03T15:02:14.518Z,60.83
2022-12-03T15:04:41.911Z,60.50
2022-12-03T15:07:09.431Z,59.78
2022-12-03T15:09:36.730Z,59.60
2022-12-03T15:12:04.585Z,60.30
2022-12-03T15:14:31.862Z,67.13
2022-12-03T15:16:59.308Z,61.17
2022-12-03T15:19:26.751Z,60.58
2022-12-03T15:21:54.109Z,64.47
2022-12-03T15:24:21.511Z,58.13
2022-12-03T15:26:49.544Z,60.30
2022-12-03T15:29:16.823Z,63.97
2022-12-03T15:31:44.588Z,63.45
2022-12-03T15:34:12.793Z,60.50
2022-12-03T15:36:42.260Z,59.53
2022-12-03T15:39:09.755Z,60.22
2022-12-03T15:41:37.022Z,63.38
2022-12-03T15:44:04.701Z,62.00
2022-12-03T15:46:32.021Z,64.03
2022-12-03T15:49:00.304Z,59.17
2022-12-03T15:51:27.654Z,64.90
2022-12-03T15:53:54.944Z,66.65
2022-12-03T15:56:22.420Z,61.03
2022-12-03T15:58:49.814Z,61.30
2022-12-03T16:01:18.309Z,60.72
2022-12-03T16:03:46.334Z,69.63
2022-12-03T16:06:14.683Z,63.13
2022-12-03T16:08:42.092Z,68.57
2022-12-03T16:11:09.765Z,64.47
2022-12-03T16:13:37.095Z,63.33
2022-12-03T16:16:04.619Z,65.45
2022-12-03T16:18:32.270Z,62.55
2022-12-03T16:20:59.882Z,63.60
2022-12-03T16:23:27.440Z,62.83
2022-12-03T16:25:55.497Z,65.28
2022-12-03T16:28:23.055Z,65.43
2022-12-03T16:30:51.047Z,59.38
2022-12-03T16:33:24.045Z,62.00
2022-12-03T16:35:54.772Z,60.65
2022-12-03T16:38:22.258Z,59.38
2022-12-03T16:40:49.617Z,60.35
2022-12-03T16:43:16.963Z,64.53
2022-12-03T16:45:56.077Z,66.65
2022-12-03T16:48:23.422Z,62.38
2022-12-03T16:50:50.727Z,62.03
2022-12-03T16:53:18.078Z,64.55
2022-12-03T16:55:45.349Z,68.50
2022-12-03T16:58:12.636Z,66.45
2022-12-03T17:00:39.899Z,66.82
2022-12-03T17:03:07.274Z,68.90
2022-12-03T17:05:34.628Z,67.05
2022-12-03T17:08:01.937Z,63.50
2022-12-03T17:10:29.411Z,67.28
2022-12-03T17:13:12.198Z,63.22
2022-12-03T17:15:40.205Z,66.97
2022-12-03T17:18:08.131Z,63.83
2022-12-03T17:20:36.063Z,68.30
2022-12-03T17:23:03.593Z,68.03
2022-12-03T17:25:31.018Z,71.10
2022-12-03T17:27:58.381Z,65.90
2022-12-03T17:30:25.814Z,61.47
2022-12-03T17:32:53.108Z,63.72
2022-12-03T17:35:20.443Z,65.82
2022-12-03T17:37:47.777Z,74.45
2022-12-03T17:40:16.889Z,68.07
2022-12-03T17:42:44.303Z,63.97
2022-12-03T17:45:12.524Z,66.22
2022-12-03T17:47:39.810Z,63.70
2022-12-03T17:50:07.859Z,69.82
2022-12-03T17:52:35.176Z,65.95
2022-12-03T17:55:11.883Z,64.75
2022-12-03T17:57:41.657Z,71.60
2022-12-03T18:00:09.585Z,69.15
2022-12-03T18:02:36.968Z,60.65
2022-12-03T18:05:04.362Z,61.67
2022-12-03T18:07:31.833Z,63.67
2022-12-03T18:09:59.218Z,67.10
2022-12-03T18:12:26.580Z,60.97
2022-12-03T18:14:53.802Z,61.53
2022-12-03T18:17:21.125Z,67.00
2022-12-03T18:19:48.563Z,63.33
2022-12-03T18:22:16.127Z,66.38
2022-12-03T18:24:46.119Z,63.65
2022-12-03T18:27:14.789Z,71.88
2022-12-03T18:29:42.189Z,64.82
2022-12-03T18:32:27.173Z,66.00
2022-12-03T18:34:55.684Z,61.53
2022-12-03T18:37:28.629Z,69.93
2022-12-03T18:39:56.675Z,62.33
2022-12-03T18:42:24.714Z,67.55
2022-12-03T18:44:54.117Z,70.07
2022-12-03T18:47:23.830Z,62.53
2022-12-03T18:49:51.265Z,73.80
2022-12-03T18:52:20.970Z,68.45
2022-12-03T18:54:48.497Z,68.70
2022-12-03T18:57:16.172Z,66.53
2022-12-03T18:59:43.622Z,74.97
2022-12-03T19:02:38.493Z,68.38
2022-12-03T19:05:04.005Z,69.00
2022-12-03T19:07:31.325Z,71.07
2022-12-03T19:09:58.754Z,73.05
2022-12-03T19:12:26.029Z,67.20
2022-12-03T19:14:53.367Z,76.90
2022-12-03T19:17:21.624Z,73.35
2022-12-03T19:19:48.970Z,73.80
2022-12-03T19:22:16.313Z,77.80
2022-12-03T19:24:43.804Z,75.93
2022-12-03T19:27:11.154Z,75.05
2022-12-03T19:29:38.551Z,80.63
2022-12-03T19:32:05.971Z,72.50
2022-12-03T19:34:33.459Z,76.03
2022-12-03T19:37:00.750Z,77.00
2022-12-03T19:39:28.059Z,72.53
2022-12-03T19:41:55.525Z,70.45
2022-12-03T19:44:22.885Z,74.10
2022-12-03T19:46:50.858Z,72.32
2022-12-03T19:49:20.863Z,71.10
2022-12-03T19:51:48.662Z,76.68
2022-12-03T19:54:16.556Z,86.28
2022-12-03T19:56:44.237Z,74.43
2022-12-03T19:59:12.520Z,76.32
2022-12-03T20:01:42.783Z,81.28
2022-12-03T20:04:11.562Z,78.35
2022-12-03T20:06:39.158Z,74.68
2022-12-03T20:09:17.121Z,77.25
2022-12-03T20:11:45.801Z,77.78
2022-12-03T20:14:15.608Z,79.20
2022-12-03T20:16:44.457Z,75.63
2022-12-03T20:19:14.729Z,74.03
2022-12-03T20:21:43.002Z,84.72
2022-12-03T20:24:14.193Z,74.80
2022-12-03T20:26:41.580Z,81.03
2022-12-03T20:29:08.857Z,79.60
2022-12-03T20:31:36.334Z,75.93
2022-12-03T20:34:03.970Z,77.03
2022-12-03T20:36:32.089Z,74.68
2022-12-03T20:39:01.830Z,70.13
2022-12-03T20:41:29.344Z,82.18
2022-12-03T20:43:57.015Z,79.75
2022-12-03T20:46:26.732Z,71.93
2022-12-03T20:48:55.109Z,73.35
2022-12-03T20:51:26.161Z,81.38
2022-12-03T20:53:53.910Z,83.25
2022-12-03T20:56:23.947Z,75.00
2022-12-03T20:58:51.328Z,73.15
2022-12-03T21:01:24.806Z,71.63
2022-12-03T21:03:54.116Z,76.47
2022-12-03T21:06:22.334Z,75.95
2022-12-03T21:08:50.117Z,78.20
2022-12-03T21:11:19.942Z,76.35
2022-12-03T21:13:47.716Z,79.05
2022-12-03T21:16:17.611Z,84.05
2022-12-03T21:18:45.293Z,76.93
2022-12-03T21:21:14.233Z,77.18
2022-12-03T21:23:42.104Z,80.03
2022-12-03T21:26:29.621Z,79.70
2022-12-03T21:28:56.967Z,82.20
2022-12-03T21:31:26.317Z,80.95
2022-12-03T21:33:54.652Z,76.47
2022-12-03T21:36:22.866Z,82.38
2022-12-03T21:38:50.147Z,91.10
2022-12-03T21:41:17.819Z,85.03
2022-12-03T21:43:45.231Z,81.68
2022-12-03T21:47:10.837Z,81.93
2022-12-03T21:49:04.619Z,86.00
2022-12-03T21:51:31.940Z,84.82
2022-12-03T21:53:59.209Z,85.00
2022-12-03T21:56:26.577Z,90.03
2022-12-03T21:58:54.743Z,81.22
2022-12-03T22:01:23.849Z,80.35
2022-12-03T22:03:51.403Z,76.35
2022-12-03T22:06:19.379Z,85.43
2022-12-03T22:08:47.226Z,83.03
2022-12-03T22:11:18.961Z,87.30
2022-12-03T22:13:46.521Z,90.68
2022-12-03T22:16:16.407Z,84.13
2022-12-03T22:18:44.206Z,85.00
2022-12-03T22:21:19.559Z,86.35
2022-12-03T22:23:46.990Z,84.70
2022-12-03T22:26:16.521Z,82.35
2022-12-03T22:28:45.242Z,84.93
2022-12-03T22:31:12.820Z,88.82
2022-12-03T22:33:40.355Z,81.70
2022-12-03T22:36:16.213Z,84.13
2022-12-03T22:38:47.619Z,82.05
2022-12-03T22:41:15.706Z,79.38
2022-12-03T22:43:43.349Z,79.07
2022-12-03T22:46:14.545Z,79.85
2022-12-03T22:48:43.093Z,81.40
2022-12-03T22:51:19.130Z,86.70
2022-12-03T22:53:46.763Z,88.20
2022-12-03T22:56:14.305Z,89.80
2022-12-03T22:58:41.740Z,86.28
2022-12-03T23:01:23.926Z,85.38
2022-12-03T23:03:51.606Z,83.03
2022-12-03T23:06:19.183Z,89.20
2022-12-03T23:08:46.695Z,77.57
2022-12-03T23:11:14.517Z,85.80
2022-12-03T23:13:42.243Z,89.07
2022-12-03T23:16:30.357Z,86.53
2022-12-03T23:18:59.556Z,89.25
2022-12-03T23:21:30.181Z,84.88
2022-12-03T23:23:59.075Z,82.20
2022-12-03T23:26:26.530Z,82.40
2022-12-03T23:28:53.865Z,84.28
2022-12-03T23:31:26.545Z,82.63
2022-12-03T23:33:54.375Z,86.38
2022-12-03T23:36:22.326Z,86.13
2022-12-03T23:38:49.743Z,86.28
2022-12-03T23:41:19.919Z,80.50
2022-12-03T23:43:47.702Z,84.15
2022-12-03T23:46:17.715Z,80.55
2022-12-03T23:48:45.571Z,88.93
2022-12-03T23:51:18.025Z,86.15
2022-12-03T23:53:45.919Z,84.72
2022-12-03T23:56:17.060Z,87.18
2022-12-03T23:58:44.773Z,88.57
